createdAt,value
2018-08-30T00:02:27.056Z,9.87
2018-08-30T00:04:55.295Z,9.43
2018-08-30T00:07:23.519Z,9.00
2018-08-30T00:09:51.795Z,9.40
2018-08-30T00:12:19.998Z,10.10
2018-08-30T00:14:48.235Z,9.90
2018-08-30T00:17:16.441Z,9.20
2018-08-30T00:19:44.695Z,9.40
2018-08-30T00:22:12.933Z,9.30
2018-08-30T00:24:41.168Z,8.97
2018-08-30T00:27:09.371Z,9.20
2018-08-30T00:29:37.616Z,9.00
2018-08-30T00:32:05.886Z,9.33
2018-08-30T00:34:34.095Z,8.80
2018-08-30T00:37:02.329Z,9.27
2018-08-30T00:39:30.533Z,9.60
2018-08-30T00:41:58.814Z,10.10
2018-08-30T00:44:27.103Z,10.00
2018-08-30T00:46:55.343Z,9.90
2018-08-30T00:49:23.562Z,9.20
2018-08-30T00:51:51.791Z,9.87
2018-08-30T00:54:20.045Z,10.50
2018-08-30T00:56:48.272Z,9.77
2018-08-30T00:59:16.483Z,9.47
2018-08-30T01:01:44.717Z,9.40
2018-08-30T01:04:12.927Z,9.07
2018-08-30T01:06:41.154Z,9.27
2018-08-30T01:09:09.388Z,9.77
2018-08-30T01:11:37.622Z,9.60
2018-08-30T01:14:05.845Z,9.73
2018-08-30T01:16:34.516Z,9.73
2018-08-30T01:19:02.893Z,9.47
2018-08-30T01:21:31.115Z,9.60
2018-08-30T01:23:59.330Z,10.20
2018-08-30T01:26:27.570Z,9.97
2018-08-30T01:28:56.622Z,9.87
2018-08-30T01:31:24.889Z,9.17
2018-08-30T01:33:53.148Z,10.00
2018-08-30T01:36:21.376Z,9.17
2018-08-30T01:38:49.587Z,9.90
2018-08-30T01:41:17.861Z,10.20
2018-08-30T01:43:46.084Z,9.77
2018-08-30T01:46:14.751Z,10.03
2018-08-30T01:48:42.974Z,10.03
2018-08-30T01:51:11.226Z,10.03
2018-08-30T01:53:39.455Z,10.07
2018-08-30T01:56:07.687Z,9.83
2018-08-30T01:58:35.972Z,10.03
2018-08-30T02:01:04.230Z,9.57
2018-08-30T02:03:32.453Z,10.47
2018-08-30T02:06:00.696Z,10.10
2018-08-30T02:08:28.993Z,9.73
2018-08-30T02:10:57.239Z,9.67
2018-08-30T02:13:25.463Z,10.50
2018-08-30T02:15:53.707Z,10.20
2018-08-30T02:18:21.944Z,9.97
2018-08-30T02:20:50.431Z,9.90
2018-08-30T02:23:18.664Z,9.80
2018-08-30T02:25:47.543Z,9.40
2018-08-30T02:28:15.783Z,8.83
2018-08-30T02:30:43.986Z,9.87
2018-08-30T02:33:12.269Z,10.00
2018-08-30T02:35:40.530Z,10.43
2018-08-30T02:38:08.767Z,10.00
2018-08-30T02:40:36.982Z,9.83
2018-08-30T02:43:05.999Z,10.17
2018-08-30T02:45:34.571Z,10.13
2018-08-30T02:48:02.812Z,10.40
2018-08-30T02:50:31.142Z,10.43
2018-08-30T02:52:59.752Z,10.73
2018-08-30T02:55:27.994Z,10.43
2018-08-30T02:57:56.238Z,10.47
2018-08-30T03:00:24.491Z,9.70
2018-08-30T03:02:52.778Z,10.17
2018-08-30T03:05:21.003Z,10.73
2018-08-30T03:07:49.264Z,11.27
2018-08-30T03:10:17.495Z,10.80
2018-08-30T03:12:45.739Z,10.07
2018-08-30T03:15:14.931Z,10.90
2018-08-30T03:17:43.947Z,9.70
2018-08-30T03:20:13.445Z,10.07
2018-08-30T03:22:42.280Z,10.77
2018-08-30T03:25:10.547Z,10.50
2018-08-30T03:27:39.759Z,10.70
2018-08-30T03:30:08.467Z,10.80
2018-08-30T03:32:36.765Z,10.73
2018-08-30T03:35:05.067Z,11.60
2018-08-30T03:37:33.303Z,10.90
2018-08-30T03:40:01.750Z,10.57
2018-08-30T03:42:29.983Z,9.60
2018-08-30T03:44:58.217Z,10.60
2018-08-30T03:47:26.453Z,10.43
2018-08-30T03:49:54.696Z,10.80
2018-08-30T03:52:22.939Z,10.60
2018-08-30T03:54:51.189Z,11.00
2018-08-30T03:57:19.415Z,11.60
2018-08-30T03:59:47.746Z,10.57
2018-08-30T04:02:16.028Z,10.53
2018-08-30T04:04:44.244Z,10.83
2018-08-30T04:07:12.518Z,11.10
2018-08-30T04:09:40.795Z,11.33
2018-08-30T04:12:09.105Z,10.60
2018-08-30T04:14:37.319Z,10.90
2018-08-30T04:17:05.571Z,10.53
2018-08-30T04:19:33.834Z,11.33
2018-08-30T04:22:02.115Z,11.47
2018-08-30T04:24:30.763Z,10.93
2018-08-30T04:26:59.081Z,10.40
2018-08-30T04:29:27.297Z,11.67
2018-08-30T04:31:55.532Z,12.60
2018-08-30T04:34:23.756Z,11.80
2018-08-30T04:36:52.047Z,11.33
2018-08-30T04:39:20.277Z,11.57
2018-08-30T04:41:48.507Z,11.40
2018-08-30T04:44:16.751Z,10.67
2018-08-30T04:46:45.021Z,10.63
2018-08-30T04:49:13.309Z,10.73
2018-08-30T04:51:41.550Z,11.67
2018-08-30T04:54:10.465Z,11.50
2018-08-30T04:56:38.713Z,11.67
2018-08-30T04:59:06.975Z,11.67
2018-08-30T05:01:35.259Z,10.43
2018-08-30T05:04:03.539Z,10.13
2018-08-30T05:06:31.780Z,11.80
2018-08-30T05:09:00.067Z,11.83
2018-08-30T05:11:28.302Z,12.67
2018-08-30T05:13:56.630Z,11.93
2018-08-30T05:16:24.951Z,12.50
2018-08-30T05:18:53.243Z,12.57
2018-08-30T05:21:21.454Z,13.30
2018-08-30T05:23:49.686Z,13.20
2018-08-30T05:26:17.991Z,12.57
2018-08-30T05:28:46.213Z,11.80
2018-08-30T05:31:14.440Z,13.57
2018-08-30T05:33:42.722Z,13.63
2018-08-30T05:36:10.978Z,13.87
2018-08-30T05:38:39.233Z,14.30
2018-08-30T05:41:07.509Z,13.30
2018-08-30T05:43:35.932Z,12.73
2018-08-30T05:46:04.156Z,13.20
2018-08-30T05:48:32.421Z,12.47
2018-08-30T05:51:00.636Z,12.83
2018-08-30T05:53:28.875Z,13.53
2018-08-30T05:55:57.088Z,13.57
2018-08-30T05:58:25.329Z,13.33
2018-08-30T06:00:53.558Z,13.77
2018-08-30T06:03:21.787Z,13.70
2018-08-30T06:05:50.108Z,14.50
2018-08-30T06:08:18.472Z,14.20
2018-08-30T06:10:46.685Z,13.50
2018-08-30T06:13:14.908Z,14.07
2018-08-30T06:15:43.145Z,14.53
2018-08-30T06:18:11.820Z,14.77
2018-08-30T06:20:40.064Z,14.23
2018-08-30T06:23:08.302Z,14.03
2018-08-30T06:25:36.519Z,14.00
2018-08-30T06:28:04.804Z,13.13
2018-08-30T06:30:33.051Z,14.67
2018-08-30T06:33:01.263Z,14.23
2018-08-30T06:35:29.504Z,13.17
2018-08-30T06:37:57.760Z,13.60
2018-08-30T06:40:26.001Z,13.67
2018-08-30T06:42:54.208Z,13.17
2018-08-30T06:45:22.522Z,13.10
2018-08-30T06:47:50.737Z,14.57
2018-08-30T06:50:18.983Z,13.97
2018-08-30T06:52:47.199Z,13.90
2018-08-30T06:55:15.460Z,14.23
2018-08-30T06:57:43.690Z,12.53
2018-08-30T07:00:11.899Z,13.97
2018-08-30T07:02:40.118Z,13.43
2018-08-30T07:05:08.355Z,15.07
2018-08-30T07:07:36.578Z,13.80
2018-08-30T07:10:05.338Z,14.60
2018-08-30T07:12:33.592Z,13.90
2018-08-30T07:15:02.128Z,14.87
2018-08-30T07:17:30.416Z,14.40
2018-08-30T07:19:58.706Z,14.90
2018-08-30T07:22:26.898Z,13.87
2018-08-30T07:24:57.756Z,13.33
2018-08-30T07:27:26.236Z,13.60
2018-08-30T07:29:54.482Z,14.07
2018-08-30T07:32:22.752Z,13.87
2018-08-30T07:34:51.076Z,14.67
2018-08-30T07:37:19.240Z,14.20
2018-08-30T07:39:47.474Z,14.50
2018-08-30T07:42:15.720Z,13.90
2018-08-30T07:44:43.939Z,14.53
2018-08-30T07:47:12.180Z,15.50
2018-08-30T07:49:40.384Z,14.97
2018-08-30T07:52:08.612Z,15.53
2018-08-30T07:54:37.121Z,15.83
2018-08-30T07:57:05.556Z,15.77
2018-08-30T07:59:33.820Z,16.73
2018-08-30T08:02:02.151Z,17.23
2018-08-30T08:04:30.413Z,16.57
2018-08-30T08:06:58.723Z,17.93
2018-08-30T08:09:26.955Z,17.83
2018-08-30T08:11:55.312Z,17.53
2018-08-30T08:14:23.539Z,17.57
2018-08-30T08:16:52.153Z,18.33
2018-08-30T08:19:20.516Z,19.20
2018-08-30T08:21:48.827Z,19.30
2018-08-30T08:24:17.249Z,19.93
2018-08-30T08:26:45.527Z,18.67
2018-08-30T08:29:13.796Z,20.47
2018-08-30T08:31:42.049Z,19.53
2018-08-30T08:34:10.318Z,20.53
2018-08-30T08:36:38.740Z,22.43
2018-08-30T08:39:06.983Z,22.57
2018-08-30T08:41:35.340Z,22.30
2018-08-30T08:44:04.266Z,24.13
2018-08-30T08:46:33.133Z,24.27
2018-08-30T08:49:01.375Z,24.50
2018-08-30T08:51:29.624Z,26.57
2018-08-30T08:53:57.841Z,26.70
2018-08-30T08:56:26.092Z,26.33
2018-08-30T08:58:54.453Z,26.43
2018-08-30T09:01:22.715Z,25.73
2018-08-30T09:03:50.951Z,27.83
2018-08-30T09:06:19.183Z,26.10
2018-08-30T09:08:47.403Z,26.20
2018-08-30T09:11:15.708Z,26.93
2018-08-30T09:13:43.938Z,26.47
2018-08-30T09:16:12.176Z,26.93
2018-08-30T09:18:40.472Z,26.50
2018-08-30T09:21:08.712Z,26.50
2018-08-30T09:23:36.952Z,27.37
2018-08-30T09:26:05.413Z,27.83
2018-08-30T09:28:33.706Z,27.43
2018-08-30T09:31:01.997Z,26.27
2018-08-30T09:33:30.203Z,26.43
2018-08-30T09:35:58.418Z,27.93
2018-08-30T09:38:26.631Z,28.67
2018-08-30T09:40:54.931Z,28.10
2018-08-30T09:43:23.176Z,27.07
2018-08-30T09:45:51.458Z,26.90
2018-08-30T09:48:19.672Z,26.80
2018-08-30T09:50:48.050Z,26.33
2018-08-30T09:53:16.299Z,27.13
2018-08-30T09:55:44.655Z,26.60
2018-08-30T09:58:12.883Z,25.20
2018-08-30T10:00:46.478Z,26.50
2018-08-30T10:03:14.746Z,27.77
2018-08-30T10:05:43.001Z,25.67
2018-08-30T10:08:11.272Z,25.03
2018-08-30T10:10:39.475Z,25.03
2018-08-30T10:13:07.724Z,26.10
2018-08-30T10:15:36.117Z,25.53
2018-08-30T10:18:04.425Z,25.73
2018-08-30T10:20:32.647Z,25.70
2018-08-30T10:23:00.859Z,25.20
2018-08-30T10:25:29.182Z,25.57
2018-08-30T10:27:57.357Z,25.43
2018-08-30T10:30:25.647Z,23.63
2018-08-30T10:32:53.872Z,23.53
2018-08-30T10:35:22.105Z,22.33
2018-08-30T10:37:50.358Z,21.73
2018-08-30T10:40:18.635Z,21.63
2018-08-30T10:42:46.871Z,21.03
2018-08-30T10:45:15.082Z,19.70
2018-08-30T10:47:43.315Z,19.23
2018-08-30T10:50:11.553Z,18.53
2018-08-30T10:52:40.488Z,17.67
2018-08-30T10:55:08.751Z,17.50
2018-08-30T10:57:37.027Z,18.63
2018-08-30T11:00:06.220Z,17.33
2018-08-30T11:02:34.491Z,16.33
2018-08-30T11:05:02.713Z,17.60
2018-08-30T11:07:30.930Z,16.67
2018-08-30T11:09:59.190Z,16.53
2018-08-30T11:12:27.440Z,17.33
2018-08-30T11:14:55.651Z,16.53
2018-08-30T11:17:24.286Z,16.13
2018-08-30T11:19:52.516Z,15.80
2018-08-30T11:22:20.740Z,14.53
2018-08-30T11:24:48.953Z,14.27
2018-08-30T11:27:17.321Z,14.03
2018-08-30T11:29:45.555Z,15.20
2018-08-30T11:32:13.790Z,14.40
2018-08-30T11:34:42.024Z,15.23
2018-08-30T11:37:10.389Z,15.70
2018-08-30T11:39:38.624Z,14.77
2018-08-30T11:42:06.863Z,14.20
2018-08-30T11:44:35.086Z,13.73
2018-08-30T11:47:03.326Z,12.90
2018-08-30T11:49:31.564Z,11.83
2018-08-30T11:51:59.859Z,11.27
2018-08-30T11:54:28.212Z,9.00
2018-08-30T11:56:56.457Z,9.93
2018-08-30T11:59:24.724Z,10.03
2018-08-30T12:01:53.135Z,9.40
2018-08-30T12:04:21.557Z,9.33
2018-08-30T12:06:49.792Z,9.13
2018-08-30T12:09:18.056Z,9.57
2018-08-30T12:11:46.272Z,9.50
2018-08-30T12:14:14.524Z,9.47
2018-08-30T12:16:42.764Z,9.17
2018-08-30T12:19:11.045Z,9.67
2018-08-30T12:21:39.276Z,9.20
2018-08-30T12:24:07.557Z,10.03
2018-08-30T12:26:35.769Z,9.43
2018-08-30T12:29:04.054Z,10.00
2018-08-30T12:31:32.326Z,10.40
2018-08-30T12:34:00.648Z,10.70
2018-08-30T12:36:28.955Z,9.77
2018-08-30T12:38:57.306Z,10.50
2018-08-30T12:41:25.613Z,9.57
2018-08-30T12:43:54.074Z,8.70
2018-08-30T12:46:22.301Z,8.47
2018-08-30T12:48:50.848Z,7.50
2018-08-30T12:51:19.224Z,7.90
2018-08-30T12:53:47.518Z,8.73
2018-08-30T12:56:15.787Z,9.10
2018-08-30T12:58:44.138Z,9.60
2018-08-30T13:01:12.522Z,9.13
2018-08-30T13:03:40.746Z,10.73
2018-08-30T13:06:09.297Z,10.37
2018-08-30T13:08:37.567Z,10.73
2018-08-30T13:11:06.133Z,10.67
2018-08-30T13:13:34.294Z,9.83
2018-08-30T13:16:02.744Z,10.73
2018-08-30T13:18:31.188Z,10.47
2018-08-30T13:20:59.445Z,10.20
2018-08-30T13:23:27.776Z,10.40
2018-08-30T13:25:55.954Z,9.73
2018-08-30T13:28:24.420Z,9.97
2018-08-30T13:30:52.701Z,10.20
2018-08-30T13:33:21.186Z,8.77
2018-08-30T13:35:49.362Z,8.97
2018-08-30T13:38:17.876Z,9.00
2018-08-30T13:40:46.025Z,9.37
2018-08-30T13:43:14.273Z,8.63
2018-08-30T13:45:42.470Z,8.83
2018-08-30T13:48:10.791Z,8.47
2018-08-30T13:50:39.011Z,8.30
2018-08-30T13:53:07.336Z,8.67
2018-08-30T13:55:35.804Z,8.33
2018-08-30T13:58:04.077Z,9.40
2018-08-30T14:00:32.452Z,9.30
2018-08-30T14:03:00.495Z,8.67
2018-08-30T14:05:28.792Z,9.10
2018-08-30T14:07:56.933Z,9.00
2018-08-30T14:10:25.230Z,9.00
2018-08-30T14:12:53.493Z,8.93
2018-08-30T14:15:21.924Z,8.87
2018-08-30T14:17:49.822Z,8.77
2018-08-30T14:20:18.122Z,8.13
2018-08-30T14:22:46.415Z,8.40
2018-08-30T14:25:14.584Z,8.50
2018-08-30T14:27:42.815Z,8.80
2018-08-30T14:30:11.369Z,8.30
2018-08-30T14:32:39.699Z,7.97
2018-08-30T14:35:07.853Z,8.20
2018-08-30T14:37:36.138Z,8.73
2018-08-30T14:40:04.427Z,8.33
2018-08-30T14:42:32.660Z,8.90
2018-08-30T14:45:01.193Z,8.20
2018-08-30T14:47:29.494Z,8.20
2018-08-30T14:49:57.764Z,8.03
2018-08-30T14:52:26.015Z,7.40
2018-08-30T14:54:54.193Z,7.67
2018-08-30T14:57:22.449Z,7.10
2018-08-30T14:59:50.707Z,8.00
2018-08-30T15:02:18.956Z,7.03
2018-08-30T15:04:47.191Z,8.10
2018-08-30T15:07:15.427Z,8.50
2018-08-30T15:09:43.761Z,8.00
2018-08-30T15:12:11.975Z,8.83
2018-08-30T15:14:40.209Z,7.87
2018-08-30T15:17:08.737Z,8.50
2018-08-30T15:19:36.980Z,8.40
2018-08-30T15:22:05.243Z,8.40
2018-08-30T15:24:33.787Z,8.87
2018-08-30T15:27:02.217Z,8.70
2018-08-30T15:29:30.538Z,8.03
2018-08-30T15:31:59.172Z,8.13
2018-08-30T15:34:27.534Z,7.67
2018-08-30T15:36:55.702Z,8.03
2018-08-30T15:39:24.115Z,8.10
2018-08-30T15:41:52.452Z,8.07
2018-08-30T15:44:20.703Z,8.27
2018-08-30T15:46:48.971Z,7.90
2018-08-30T15:49:17.404Z,8.93
2018-08-30T15:51:45.677Z,7.77
2018-08-30T15:54:14.015Z,8.57
2018-08-30T15:56:42.243Z,8.10
2018-08-30T15:59:10.536Z,7.47
2018-08-30T16:01:38.794Z,7.37
2018-08-30T16:04:07.026Z,6.87
2018-08-30T16:06:35.355Z,6.37
2018-08-30T16:09:04.551Z,6.23
2018-08-30T16:11:32.797Z,6.73
2018-08-30T16:14:01.108Z,6.77
2018-08-30T16:16:29.350Z,7.27
2018-08-30T16:18:57.644Z,6.80
2018-08-30T16:21:25.879Z,6.10
2018-08-30T16:23:54.144Z,6.27
2018-08-30T16:26:22.389Z,5.90
2018-08-30T16:28:50.620Z,5.63
2018-08-30T16:31:19.026Z,5.17
2018-08-30T16:33:47.090Z,5.30
2018-08-30T16:36:15.433Z,5.20
2018-08-30T16:38:43.669Z,5.30
2018-08-30T16:41:11.933Z,5.60
2018-08-30T16:43:40.162Z,5.97
2018-08-30T16:46:08.416Z,5.80
2018-08-30T16:48:36.642Z,5.93
2018-08-30T16:51:05.072Z,6.13
2018-08-30T16:53:33.303Z,5.50
2018-08-30T16:56:01.615Z,5.67
2018-08-30T16:58:29.777Z,5.20
2018-08-30T17:00:58.155Z,4.97
2018-08-30T17:03:26.419Z,5.60
2018-08-30T17:05:54.675Z,5.17
2018-08-30T17:08:22.925Z,5.53
2018-08-30T17:10:51.175Z,6.53
2018-08-30T17:13:19.456Z,5.77
2018-08-30T17:15:47.718Z,5.53
2018-08-30T17:18:15.966Z,5.70
2018-08-30T17:20:47.558Z,5.40
2018-08-30T17:23:15.809Z,4.87
2018-08-30T17:25:45.208Z,5.20
2018-08-30T17:28:13.616Z,5.37
2018-08-30T17:30:42.064Z,5.43
2018-08-30T17:33:10.777Z,5.77
2018-08-30T17:35:39.022Z,5.43
2018-08-30T17:38:07.257Z,6.13
2018-08-30T17:40:35.535Z,5.90
2018-08-30T17:43:03.787Z,5.83
2018-08-30T17:45:32.162Z,5.43
2018-08-30T17:48:00.449Z,5.13
2018-08-30T17:50:28.790Z,5.10
2018-08-30T17:52:56.854Z,5.07
2018-08-30T17:55:25.185Z,5.27
2018-08-30T17:57:53.358Z,5.20
2018-08-30T18:00:21.566Z,7.07
2018-08-30T18:02:49.900Z,5.20
2018-08-30T18:05:18.087Z,5.60
2018-08-30T18:07:46.332Z,5.73
2018-08-30T18:10:14.570Z,5.87
2018-08-30T18:12:42.811Z,6.30
2018-08-30T18:15:12.779Z,6.40
2018-08-30T18:17:41.028Z,6.37
2018-08-30T18:20:09.276Z,7.03
2018-08-30T18:22:37.500Z,6.37
2018-08-30T18:25:05.850Z,6.60
2018-08-30T18:27:34.929Z,6.70
2018-08-30T18:30:03.161Z,6.27
2018-08-30T18:32:31.396Z,6.60
2018-08-30T18:34:59.682Z,6.47
2018-08-30T18:37:27.914Z,6.60
2018-08-30T18:39:56.484Z,6.33
2018-08-30T18:42:24.826Z,6.80
2018-08-30T18:44:53.029Z,6.87
2018-08-30T18:47:21.297Z,7.13
2018-08-30T18:49:49.533Z,7.03
2018-08-30T18:52:17.771Z,7.40
2018-08-30T18:54:45.982Z,7.27
2018-08-30T18:57:14.261Z,7.43
2018-08-30T18:59:42.498Z,7.50
2018-08-30T19:02:10.740Z,7.30
2018-08-30T19:04:38.966Z,7.63
2018-08-30T19:07:07.219Z,7.63
2018-08-30T19:09:35.465Z,7.63
2018-08-30T19:12:03.707Z,7.47
2018-08-30T19:14:31.948Z,7.60
2018-08-30T19:17:05.553Z,8.40
2018-08-30T19:19:35.703Z,8.03
2018-08-30T19:22:03.950Z,8.70
2018-08-30T19:24:37.506Z,8.17
2018-08-30T19:27:05.795Z,9.67
2018-08-30T19:29:39.595Z,9.00
2018-08-30T19:32:07.843Z,9.23
2018-08-30T19:34:36.063Z,9.57
2018-08-30T19:37:04.430Z,8.83
2018-08-30T19:39:32.666Z,9.27
2018-08-30T19:42:00.906Z,9.13
2018-08-30T19:44:29.125Z,9.87
2018-08-30T19:46:58.155Z,9.73
2018-08-30T19:49:26.389Z,9.67
2018-08-30T19:51:54.616Z,10.00
2018-08-30T19:54:22.849Z,9.70
2018-08-30T19:56:51.081Z,9.77
2018-08-30T19:59:19.330Z,10.07
2018-08-30T20:01:47.548Z,10.30
2018-08-30T20:04:15.966Z,10.27
2018-08-30T20:06:44.204Z,10.30
2018-08-30T20:09:12.456Z,9.63
2018-08-30T20:11:40.695Z,10.13
2018-08-30T20:14:08.938Z,8.97
2018-08-30T20:16:37.587Z,8.63
2018-08-30T20:19:05.847Z,8.67
2018-08-30T20:21:34.096Z,8.00
2018-08-30T20:24:02.326Z,8.47
2018-08-30T20:26:30.607Z,8.03
2018-08-30T20:28:58.855Z,8.73
2018-08-30T20:31:27.138Z,8.53
2018-08-30T20:33:55.379Z,8.53
2018-08-30T20:36:23.621Z,9.63
2018-08-30T20:38:51.940Z,9.30
2018-08-30T20:41:20.428Z,9.87
2018-08-30T20:43:48.660Z,9.33
2018-08-30T20:46:17.017Z,9.23
2018-08-30T20:48:45.227Z,8.97
2018-08-30T20:51:13.439Z,9.33
2018-08-30T20:53:41.672Z,9.50
2018-08-30T20:56:10.059Z,9.97
2018-08-30T20:58:38.340Z,9.70
2018-08-30T21:01:06.554Z,8.43
2018-08-30T21:03:34.814Z,9.70
2018-08-30T21:06:03.016Z,9.20
2018-08-30T21:08:31.303Z,9.47
2018-08-30T21:10:59.552Z,9.60
2018-08-30T21:13:27.852Z,10.20
2018-08-30T21:15:56.167Z,9.00
2018-08-30T21:18:24.433Z,8.57
2018-08-30T21:20:52.670Z,8.93
2018-08-30T21:23:20.984Z,8.70
2018-08-30T21:25:49.267Z,8.53
2018-08-30T21:28:17.690Z,8.10
2018-08-30T21:30:45.992Z,8.37
2018-08-30T21:33:14.233Z,8.17
2018-08-30T21:35:42.480Z,7.47
2018-08-30T21:38:10.700Z,7.37
2018-08-30T21:40:38.937Z,7.83
2018-08-30T21:43:07.148Z,6.63
2018-08-30T21:45:35.368Z,7.20
2018-08-30T21:48:03.646Z,7.30
2018-08-30T21:50:32.017Z,7.17
2018-08-30T21:53:00.239Z,6.30
2018-08-30T21:55:28.483Z,6.73
2018-08-30T21:57:56.760Z,6.77
2018-08-30T22:00:25.613Z,6.90
2018-08-30T22:02:53.890Z,7.03
2018-08-30T22:05:22.062Z,7.03
2018-08-30T22:07:50.269Z,6.40
2018-08-30T22:10:18.544Z,6.10
2018-08-30T22:12:46.750Z,6.47
2018-08-30T22:15:14.993Z,6.00
2018-08-30T22:17:43.232Z,6.10
2018-08-30T22:20:11.495Z,6.03
2018-08-30T22:22:39.717Z,6.20
2018-08-30T22:25:08.173Z,5.20
2018-08-30T22:27:36.479Z,5.27
2018-08-30T22:30:07.203Z,5.93
2018-08-30T22:32:35.427Z,5.30
2018-08-30T22:35:03.673Z,5.00
2018-08-30T22:37:31.890Z,4.93
2018-08-30T22:40:00.190Z,4.50
2018-08-30T22:42:28.403Z,4.47
2018-08-30T22:44:56.619Z,4.40
2018-08-30T22:47:24.867Z,4.33
2018-08-30T22:49:53.094Z,4.57
2018-08-30T22:52:21.316Z,4.43
2018-08-30T22:54:49.565Z,4.30
2018-08-30T22:57:17.781Z,4.00
2018-08-30T22:59:45.987Z,4.20
2018-08-30T23:02:14.201Z,4.23
2018-08-30T23:04:42.464Z,4.23
2018-08-30T23:07:10.663Z,3.93
2018-08-30T23:09:38.865Z,4.27
2018-08-30T23:12:07.317Z,4.00
2018-08-30T23:14:35.636Z,4.13
2018-08-30T23:17:04.235Z,4.17
2018-08-30T23:19:32.560Z,4.07
2018-08-30T23:22:00.774Z,3.80
2018-08-30T23:24:29.003Z,3.60
2018-08-30T23:26:57.259Z,3.63
2018-08-30T23:29:25.489Z,3.33
2018-08-30T23:31:53.731Z,3.50
2018-08-30T23:34:21.952Z,3.53
2018-08-30T23:36:50.188Z,3.20
2018-08-30T23:39:18.403Z,3.30
2018-08-30T23:41:46.616Z,3.10
2018-08-30T23:44:14.831Z,2.70
2018-08-30T23:46:43.082Z,3.17
2018-08-30T23:49:11.291Z,2.93
2018-08-30T23:51:39.519Z,3.13
2018-08-30T23:54:07.845Z,2.50
2018-08-30T23:56:36.103Z,3.10
2018-08-30T23:59:15.577Z,3.33
